createdAt,value
2022-11-29T00:01:38.143Z,6.14
2022-11-29T00:04:05.893Z,6.07
2022-11-29T00:06:34.388Z,6.08
2022-11-29T00:09:06.733Z,6.10
2022-11-29T00:11:56.407Z,6.06
2022-11-29T00:14:25.481Z,6.01
2022-11-29T00:17:01.928Z,6.04
2022-11-29T00:19:34.113Z,6.00
2022-11-29T00:22:04.620Z,6.05
2022-11-29T00:24:32.674Z,5.95
2022-11-29T00:27:01.106Z,6.03
2022-11-29T00:29:30.057Z,6.02
2022-11-29T00:32:00.969Z,6.05
2022-11-29T00:34:28.793Z,6.09
2022-11-29T00:36:56.161Z,6.12
2022-11-29T00:39:23.554Z,6.04
2022-11-29T00:41:50.983Z,6.04
2022-11-29T00:44:20.451Z,6.05
2022-11-29T00:46:48.701Z,6.07
2022-11-29T00:49:16.304Z,6.04
2022-11-29T00:51:43.752Z,6.10
2022-11-29T00:54:11.137Z,5.99
2022-11-29T00:56:38.604Z,6.05
2022-11-29T00:59:08.896Z,6.07
2022-11-29T01:01:36.378Z,6.11
2022-11-29T01:04:04.096Z,6.04
2022-11-29T01:06:31.508Z,6.06
2022-11-29T01:08:58.896Z,6.05
2022-11-29T01:11:27.590Z,6.13
2022-11-29T01:13:58.160Z,6.21
2022-11-29T01:16:27.127Z,6.23
2022-11-29T01:18:54.612Z,6.17
2022-11-29T01:21:24.170Z,6.16
2022-11-29T01:23:52.693Z,6.17
2022-11-29T01:26:23.908Z,6.18
2022-11-29T01:28:53.571Z,6.22
2022-11-29T01:31:24.610Z,6.20
2022-11-29T01:33:56.471Z,6.09
2022-11-29T01:36:24.238Z,6.15
2022-11-29T01:38:52.291Z,6.18
2022-11-29T01:41:23.338Z,6.22
2022-11-29T01:44:07.459Z,6.26
2022-11-29T01:46:38.373Z,6.24
2022-11-29T01:49:15.072Z,6.21
2022-11-29T01:51:52.501Z,6.21
2022-11-29T01:54:20.651Z,6.18
2022-11-29T01:56:50.452Z,6.09
2022-11-29T01:59:22.048Z,6.14
2022-11-29T02:01:49.639Z,6.10
2022-11-29T02:04:18.075Z,6.10
2022-11-29T02:06:46.075Z,6.13
2022-11-29T02:09:19.745Z,6.21
2022-11-29T02:11:56.121Z,6.17
2022-11-29T02:14:41.718Z,6.22
2022-11-29T02:17:42.879Z,6.21
2022-11-29T02:20:25.345Z,6.28
2022-11-29T02:23:11.474Z,6.29
2022-11-29T02:25:42.946Z,6.19
2022-11-29T02:28:42.840Z,6.13
2022-11-29T02:31:44.612Z,6.11
2022-11-29T02:34:49.256Z,6.15
2022-11-29T02:37:22.566Z,6.16
2022-11-29T02:40:02.522Z,6.15
2022-11-29T02:42:56.742Z,6.18
2022-11-29T02:45:51.458Z,6.18
2022-11-29T02:48:43.374Z,6.19
2022-11-29T02:51:30.782Z,6.19
2022-11-29T02:54:03.851Z,6.20
2022-11-29T02:56:43.597Z,6.20
2022-11-29T02:59:45.601Z,6.14
2022-11-29T03:02:32.387Z,6.12
2022-11-29T03:05:15.336Z,6.15
2022-11-29T03:07:45.905Z,6.10
2022-11-29T03:10:34.790Z,6.04
2022-11-29T03:13:05.693Z,6.01
2022-11-29T03:15:41.360Z,5.98
2022-11-29T03:18:23.801Z,5.93
2022-11-29T03:21:09.748Z,5.93
2022-11-29T03:23:43.930Z,5.93
2022-11-29T03:26:17.884Z,5.96
2022-11-29T03:29:01.207Z,5.92
2022-11-29T03:31:36.474Z,6.02
2022-11-29T03:34:21.903Z,5.96
2022-11-29T03:37:01.036Z,5.95
2022-11-29T03:39:45.178Z,5.88
2022-11-29T03:42:26.522Z,5.93
2022-11-29T03:45:07.756Z,5.94
2022-11-29T03:47:51.502Z,5.95
2022-11-29T03:50:25.064Z,5.97
2022-11-29T03:52:56.996Z,5.96
2022-11-29T03:55:46.593Z,6.03
2022-11-29T03:58:35.647Z,6.05
2022-11-29T04:01:22.161Z,6.02
2022-11-29T04:04:34.728Z,6.02
2022-11-29T04:07:13.446Z,6.02
2022-11-29T04:10:09.311Z,6.00
2022-11-29T04:13:15.142Z,6.02
2022-11-29T04:16:19.826Z,6.02
2022-11-29T04:19:11.905Z,6.01
2022-11-29T04:22:08.549Z,6.02
2022-11-29T04:25:03.838Z,6.03
2022-11-29T04:27:49.549Z,6.05
2022-11-29T04:30:22.936Z,6.14
2022-11-29T04:33:08.668Z,6.16
2022-11-29T04:36:01.091Z,6.16
2022-11-29T04:39:18.707Z,6.20
2022-11-29T04:41:49.126Z,6.22
2022-11-29T04:44:49.216Z,6.20
2022-11-29T04:47:47.460Z,6.24
2022-11-29T04:50:20.953Z,6.26
2022-11-29T04:53:07.865Z,6.22
2022-11-29T04:55:52.487Z,6.21
2022-11-29T04:58:19.799Z,6.24
2022-11-29T05:01:00.513Z,6.30
2022-11-29T05:04:26.243Z,6.28
2022-11-29T05:07:12.807Z,6.29
2022-11-29T05:09:46.544Z,6.27
2022-11-29T05:12:30.027Z,6.25
2022-11-29T05:15:22.215Z,6.27
2022-11-29T05:18:24.673Z,6.23
2022-11-29T05:21:14.317Z,6.25
2022-11-29T05:23:59.817Z,6.21
2022-11-29T05:26:55.268Z,6.13
2022-11-29T05:29:36.505Z,6.08
2022-11-29T05:32:25.606Z,6.10
2022-11-29T05:35:29.311Z,6.09
2022-11-29T05:38:21.734Z,6.09
2022-11-29T05:41:02.689Z,6.00
2022-11-29T05:43:39.002Z,6.05
2022-11-29T05:46:16.110Z,6.04
2022-11-29T05:48:46.429Z,6.03
2022-11-29T05:51:30.965Z,6.10
2022-11-29T05:54:16.863Z,6.00
2022-11-29T05:57:06.265Z,6.04
2022-11-29T05:59:38.459Z,6.03
2022-11-29T06:02:21.075Z,6.02
2022-11-29T06:05:07.793Z,6.00
2022-11-29T06:07:51.688Z,6.02
2022-11-29T06:10:23.878Z,6.04
2022-11-29T06:13:18.843Z,6.05
2022-11-29T06:16:24.889Z,6.16
2022-11-29T06:19:19.809Z,6.15
2022-11-29T06:22:08.657Z,6.15
2022-11-29T06:25:02.712Z,6.22
2022-11-29T06:27:48.285Z,6.23
2022-11-29T06:30:20.864Z,6.25
2022-11-29T06:33:13.367Z,6.24
2022-11-29T06:35:53.521Z,6.16
2022-11-29T06:38:29.609Z,6.20
2022-11-29T06:41:01.795Z,6.16
2022-11-29T06:43:30.900Z,6.10
2022-11-29T06:46:14.324Z,6.11
2022-11-29T06:49:02.111Z,6.27
2022-11-29T06:51:39.196Z,6.30
2022-11-29T06:54:23.883Z,6.30
2022-11-29T06:57:15.329Z,6.27
2022-11-29T07:00:07.005Z,6.32
2022-11-29T07:02:46.185Z,6.36
2022-11-29T07:05:19.670Z,6.34
2022-11-29T07:07:48.555Z,6.45
2022-11-29T07:10:19.070Z,6.44
2022-11-29T07:12:47.853Z,6.39
2022-11-29T07:15:21.845Z,6.40
2022-11-29T07:18:17.397Z,6.51
2022-11-29T07:20:53.703Z,6.48
2022-11-29T07:23:36.674Z,6.40
2022-11-29T07:26:37.190Z,6.41
2022-11-29T07:29:39.537Z,6.38
2022-11-29T07:32:19.019Z,6.37
2022-11-29T07:34:48.540Z,6.39
2022-11-29T07:37:24.648Z,6.39
2022-11-29T07:40:23.574Z,6.44
2022-11-29T07:43:20.138Z,6.49
2022-11-29T07:45:47.731Z,6.41
2022-11-29T07:48:16.957Z,6.52
2022-11-29T07:50:45.241Z,6.53
2022-11-29T07:53:17.800Z,6.56
2022-11-29T07:55:46.182Z,6.58
2022-11-29T07:58:16.709Z,6.64
2022-11-29T08:00:45.187Z,6.64
2022-11-29T08:03:12.943Z,6.66
2022-11-29T08:05:40.537Z,6.77
2022-11-29T08:08:08.205Z,6.72
2022-11-29T08:10:35.669Z,6.71
2022-11-29T08:13:03.268Z,6.75
2022-11-29T08:15:30.645Z,6.83
2022-11-29T08:17:57.977Z,6.84
2022-11-29T08:20:25.392Z,6.83
2022-11-29T08:22:58.593Z,6.99
2022-11-29T08:25:26.965Z,6.92
2022-11-29T08:27:54.972Z,7.07
2022-11-29T08:30:23.395Z,6.98
2022-11-29T08:32:51.961Z,6.99
2022-11-29T08:35:21.474Z,7.09
2022-11-29T08:37:53.891Z,7.03
2022-11-29T08:40:21.474Z,6.97
2022-11-29T08:42:48.798Z,6.97
2022-11-29T08:45:17.011Z,7.10
2022-11-29T08:47:47.708Z,7.16
2022-11-29T08:50:17.989Z,7.13
2022-11-29T08:53:05.895Z,7.05
2022-11-29T08:55:36.503Z,7.04
2022-11-29T08:58:07.280Z,7.10
2022-11-29T09:00:35.049Z,7.19
2022-11-29T09:03:22.128Z,7.19
2022-11-29T09:05:50.142Z,7.20
2022-11-29T09:08:17.934Z,7.15
2022-11-29T09:10:45.949Z,7.23
2022-11-29T09:13:15.298Z,7.19
2022-11-29T09:15:43.657Z,7.18
2022-11-29T09:18:11.550Z,7.17
2022-11-29T09:20:42.806Z,7.27
2022-11-29T09:23:11.206Z,7.26
2022-11-29T09:25:38.549Z,7.31
2022-11-29T09:28:06.235Z,7.38
2022-11-29T09:30:35.090Z,7.39
2022-11-29T09:33:05.620Z,7.36
2022-11-29T09:35:52.121Z,7.44
2022-11-29T09:38:19.422Z,7.42
2022-11-29T09:41:42.986Z,7.45
2022-11-29T09:44:59.308Z,7.50
2022-11-29T09:47:55.870Z,7.63
2022-11-29T09:50:23.300Z,7.58
2022-11-29T09:52:59.366Z,7.81
2022-11-29T09:56:01.033Z,7.71
2022-11-29T09:58:53.599Z,7.66
2022-11-29T10:01:26.630Z,7.68
2022-11-29T10:04:00.441Z,7.75
2022-11-29T10:06:39.706Z,7.73
2022-11-29T10:09:07.172Z,7.74
2022-11-29T10:12:04.091Z,7.78
2022-11-29T10:14:35.884Z,7.78
2022-11-29T10:17:18.262Z,7.83
2022-11-29T10:19:55.655Z,7.81
2022-11-29T10:22:31.574Z,7.88
2022-11-29T10:25:02.594Z,7.89
2022-11-29T10:27:30.088Z,7.94
2022-11-29T10:30:00.937Z,7.98
2022-11-29T10:32:32.184Z,7.97
2022-11-29T10:35:00.912Z,7.99
2022-11-29T10:37:32.879Z,8.02
2022-11-29T10:40:04.498Z,8.11
2022-11-29T10:42:50.267Z,8.16
2022-11-29T10:45:29.393Z,8.18
2022-11-29T10:48:02.361Z,8.15
2022-11-29T10:50:31.989Z,8.18
2022-11-29T10:53:08.151Z,8.18
2022-11-29T10:56:00.477Z,8.26
2022-11-29T10:58:31.125Z,8.37
2022-11-29T11:01:01.284Z,8.30
2022-11-29T11:03:37.446Z,8.33
2022-11-29T11:06:15.802Z,8.36
2022-11-29T11:08:51.141Z,8.39
2022-11-29T11:11:31.378Z,8.36
2022-11-29T11:14:18.311Z,8.36
2022-11-29T11:16:46.127Z,8.43
2022-11-29T11:19:39.825Z,8.38
2022-11-29T11:22:07.317Z,8.26
2022-11-29T11:24:40.012Z,8.21
2022-11-29T11:27:07.730Z,8.23
2022-11-29T11:29:39.378Z,8.24
2022-11-29T11:32:18.627Z,8.29
2022-11-29T11:34:56.443Z,8.21
2022-11-29T11:37:29.544Z,8.25
2022-11-29T11:39:59.786Z,8.00
2022-11-29T11:42:38.943Z,8.16
2022-11-29T11:45:12.554Z,8.23
2022-11-29T11:47:46.465Z,8.33
2022-11-29T11:50:27.973Z,8.30
2022-11-29T11:53:02.233Z,8.31
2022-11-29T11:55:32.411Z,8.30
2022-11-29T11:58:14.968Z,8.19
2022-11-29T12:01:09.912Z,8.27
2022-11-29T12:04:18.710Z,8.22
2022-11-29T12:06:56.677Z,8.34
2022-11-29T12:09:42.232Z,8.35
2022-11-29T12:12:18.046Z,8.23
2022-11-29T12:15:13.033Z,8.27
2022-11-29T12:17:46.104Z,8.20
2022-11-29T12:20:22.705Z,8.21
2022-11-29T12:23:11.371Z,8.13
2022-11-29T12:25:50.977Z,8.09
2022-11-29T12:28:20.883Z,8.20
2022-11-29T12:31:21.661Z,8.18
2022-11-29T12:33:56.038Z,8.14
2022-11-29T12:36:42.386Z,8.25
2022-11-29T12:39:23.212Z,8.21
2022-11-29T12:42:24.663Z,8.26
2022-11-29T12:45:23.915Z,8.25
2022-11-29T12:47:53.974Z,8.29
2022-11-29T12:50:39.604Z,8.30
2022-11-29T12:53:40.698Z,8.22
2022-11-29T12:56:11.162Z,8.30
2022-11-29T12:59:09.629Z,8.20
2022-11-29T13:01:49.221Z,8.22
2022-11-29T13:04:38.809Z,8.31
2022-11-29T13:07:15.875Z,8.35
2022-11-29T13:09:58.554Z,8.38
2022-11-29T13:13:00.778Z,8.36
2022-11-29T13:15:38.063Z,8.24
2022-11-29T13:18:17.885Z,8.32
2022-11-29T13:20:57.128Z,8.28
2022-11-29T13:23:45.731Z,8.40
2022-11-29T13:26:22.119Z,8.35
2022-11-29T13:28:50.668Z,8.37
2022-11-29T13:31:22.640Z,8.31
2022-11-29T13:33:59.234Z,8.27
2022-11-29T13:36:49.849Z,8.24
2022-11-29T13:39:43.916Z,8.33
2022-11-29T13:42:40.468Z,8.30
2022-11-29T13:45:28.259Z,8.34
2022-11-29T13:47:59.388Z,8.31
2022-11-29T13:50:45.489Z,8.41
2022-11-29T13:53:21.764Z,8.41
2022-11-29T13:56:01.802Z,8.47
2022-11-29T13:58:29.289Z,8.42
2022-11-29T14:01:02.580Z,8.40
2022-11-29T14:03:42.884Z,8.37
2022-11-29T14:06:33.001Z,8.36
2022-11-29T14:09:24.911Z,8.31
2022-11-29T14:11:59.418Z,8.33
2022-11-29T14:14:49.637Z,8.33
2022-11-29T14:17:48.585Z,8.21
2022-11-29T14:20:25.143Z,8.29
2022-11-29T14:23:04.466Z,8.20
2022-11-29T14:25:55.252Z,8.35
2022-11-29T14:28:22.532Z,8.23
2022-11-29T14:30:57.372Z,8.21
2022-11-29T14:33:47.480Z,8.15
2022-11-29T14:36:14.673Z,8.13
2022-11-29T14:38:51.272Z,8.16
2022-11-29T14:41:40.401Z,8.16
2022-11-29T14:44:32.972Z,8.24
2022-11-29T14:47:21.565Z,8.12
2022-11-29T14:49:49.026Z,8.14
2022-11-29T14:52:24.312Z,8.03
2022-11-29T14:55:05.672Z,8.04
2022-11-29T14:57:48.297Z,7.97
2022-11-29T15:00:19.575Z,7.93
2022-11-29T15:03:01.422Z,7.94
2022-11-29T15:05:33.368Z,7.89
2022-11-29T15:08:03.686Z,7.87
2022-11-29T15:10:35.665Z,7.89
2022-11-29T15:13:04.154Z,7.98
2022-11-29T15:15:37.156Z,7.86
2022-11-29T15:18:27.308Z,7.74
2022-11-29T15:21:25.228Z,7.83
2022-11-29T15:24:01.590Z,7.89
2022-11-29T15:26:29.194Z,7.86
2022-11-29T15:29:13.808Z,7.81
2022-11-29T15:31:43.179Z,7.78
2022-11-29T15:34:23.468Z,7.81
2022-11-29T15:36:52.810Z,7.71
2022-11-29T15:39:28.788Z,7.81
2022-11-29T15:42:14.021Z,7.78
2022-11-29T15:44:46.292Z,7.75
2022-11-29T15:47:22.584Z,7.73
2022-11-29T15:49:51.542Z,7.68
2022-11-29T15:52:35.840Z,7.66
2022-11-29T15:55:07.543Z,7.67
2022-11-29T15:57:37.827Z,7.69
2022-11-29T16:00:16.861Z,7.68
2022-11-29T16:02:52.108Z,7.62
2022-11-29T16:05:26.757Z,7.68
2022-11-29T16:07:58.379Z,7.63
2022-11-29T16:10:52.498Z,7.55
2022-11-29T16:13:32.687Z,7.58
2022-11-29T16:16:12.352Z,7.54
2022-11-29T16:18:42.099Z,7.57
2022-11-29T16:21:29.886Z,7.52
2022-11-29T16:23:58.386Z,7.59
2022-11-29T16:26:39.539Z,7.61
2022-11-29T16:29:21.135Z,7.62
2022-11-29T16:31:48.616Z,7.65
2022-11-29T16:34:24.733Z,7.67
2022-11-29T16:37:02.196Z,7.62
2022-11-29T16:39:30.723Z,7.54
2022-11-29T16:42:30.036Z,7.53
2022-11-29T16:45:35.027Z,7.52
2022-11-29T16:48:14.181Z,7.48
2022-11-29T16:50:41.533Z,7.52
2022-11-29T16:53:35.710Z,7.54
2022-11-29T16:56:04.874Z,7.42
2022-11-29T16:58:35.483Z,7.42
2022-11-29T17:01:22.182Z,7.31
2022-11-29T17:03:49.585Z,7.30
2022-11-29T17:06:24.651Z,7.34
2022-11-29T17:08:53.696Z,7.33
2022-11-29T17:11:21.637Z,7.29
2022-11-29T17:13:50.271Z,7.23
2022-11-29T17:16:22.427Z,7.15
2022-11-29T17:18:50.194Z,7.07
2022-11-29T17:21:21.952Z,6.95
2022-11-29T17:23:49.531Z,6.94
2022-11-29T17:26:17.909Z,6.82
2022-11-29T17:28:46.750Z,6.77
2022-11-29T17:31:19.717Z,6.68
2022-11-29T17:33:47.504Z,6.63
2022-11-29T17:36:17.727Z,6.56
2022-11-29T17:38:48.186Z,6.52
2022-11-29T17:41:22.660Z,6.51
2022-11-29T17:43:51.612Z,6.46
2022-11-29T17:46:23.979Z,6.44
2022-11-29T17:48:52.236Z,6.40
2022-11-29T17:51:50.482Z,6.38
2022-11-29T17:54:09.545Z,6.35
2022-11-29T17:56:37.095Z,6.38
2022-11-29T17:59:04.829Z,6.37
2022-11-29T18:01:34.049Z,6.41
2022-11-29T18:04:06.398Z,6.36
2022-11-29T18:06:38.588Z,6.33
2022-11-29T18:09:08.613Z,6.28
2022-11-29T18:11:45.327Z,6.29
2022-11-29T18:14:17.889Z,6.22
2022-11-29T18:16:45.764Z,6.19
2022-11-29T18:19:16.086Z,6.15
2022-11-29T18:21:43.583Z,6.10
2022-11-29T18:24:11.154Z,6.05
2022-11-29T18:26:39.479Z,6.03
2022-11-29T18:29:07.497Z,6.05
2022-11-29T18:31:37.086Z,6.03
2022-11-29T18:34:12.988Z,6.02
2022-11-29T18:36:45.927Z,6.02
2022-11-29T18:39:20.177Z,5.91
2022-11-29T18:41:49.505Z,5.89
2022-11-29T18:44:19.570Z,5.90
2022-11-29T18:46:47.555Z,5.90
2022-11-29T18:49:17.419Z,5.95
2022-11-29T18:51:46.282Z,5.92
2022-11-29T18:54:15.736Z,5.89
2022-11-29T18:56:44.706Z,5.86
2022-11-29T18:59:17.300Z,5.79
2022-11-29T19:01:47.591Z,5.66
2022-11-29T19:04:20.666Z,5.66
2022-11-29T19:06:48.835Z,5.57
2022-11-29T19:09:20.836Z,5.53
2022-11-29T19:11:51.581Z,5.46
2022-11-29T19:14:19.668Z,5.39
2022-11-29T19:16:48.763Z,5.39
2022-11-29T19:19:18.576Z,5.35
2022-11-29T19:21:46.133Z,5.38
2022-11-29T19:24:15.708Z,5.37
2022-11-29T19:26:45.191Z,5.32
2022-11-29T19:29:16.349Z,5.42
2022-11-29T19:31:44.586Z,5.35
2022-11-29T19:34:11.997Z,5.30
2022-11-29T19:36:44.160Z,5.21
2022-11-29T19:39:14.432Z,5.17
2022-11-29T19:41:44.253Z,5.20
2022-11-29T19:44:12.604Z,5.24
2022-11-29T19:46:43.239Z,5.22
2022-11-29T19:49:11.267Z,5.21
2022-11-29T19:51:38.707Z,5.25
2022-11-29T19:54:08.240Z,5.25
2022-11-29T19:56:35.957Z,5.34
2022-11-29T19:59:03.403Z,5.38
2022-11-29T20:01:39.707Z,5.35
2022-11-29T20:04:09.754Z,5.35
2022-11-29T20:06:37.308Z,5.41
2022-11-29T20:09:05.062Z,5.43
2022-11-29T20:11:32.451Z,5.30
2022-11-29T20:14:01.529Z,5.21
2022-11-29T20:16:30.688Z,5.11
2022-11-29T20:18:59.055Z,5.06
2022-11-29T20:21:28.963Z,4.99
2022-11-29T20:23:58.481Z,4.99
2022-11-29T20:26:27.381Z,5.02
2022-11-29T20:28:55.107Z,4.98
2022-11-29T20:31:23.450Z,5.02
2022-11-29T20:33:53.000Z,5.03
2022-11-29T20:36:39.298Z,4.96
2022-11-29T20:39:15.866Z,4.93
2022-11-29T20:41:49.250Z,4.82
2022-11-29T20:44:20.925Z,4.84
2022-11-29T20:46:48.475Z,4.76
2022-11-29T20:49:17.335Z,4.78
2022-11-29T20:51:55.439Z,4.74
2022-11-29T20:54:22.908Z,4.77
2022-11-29T20:56:50.235Z,4.75
2022-11-29T20:59:17.639Z,4.76
2022-11-29T21:01:44.979Z,4.76
2022-11-29T21:04:12.386Z,4.51
2022-11-29T21:06:39.900Z,4.64
2022-11-29T21:09:08.672Z,4.68
2022-11-29T21:11:37.679Z,4.68
2022-11-29T21:14:07.388Z,4.76
2022-11-29T21:16:35.075Z,4.74
2022-11-29T21:19:02.952Z,4.75
2022-11-29T21:21:49.233Z,4.70
2022-11-29T21:24:43.017Z,4.61
2022-11-29T21:27:14.361Z,4.67
2022-11-29T21:29:42.130Z,4.67
2022-11-29T21:32:20.337Z,4.74
2022-11-29T21:34:48.268Z,4.76
2022-11-29T21:37:18.313Z,4.77
2022-11-29T21:39:47.390Z,4.79
2022-11-29T21:42:14.856Z,4.71
2022-11-29T21:44:43.946Z,4.75
2022-11-29T21:47:11.856Z,4.79
2022-11-29T21:49:39.942Z,4.76
2022-11-29T21:52:07.394Z,4.73
2022-11-29T21:54:37.418Z,4.72
2022-11-29T21:57:05.195Z,4.72
2022-11-29T21:59:32.635Z,4.67
2022-11-29T22:02:00.045Z,4.70
2022-11-29T22:04:27.994Z,4.68
2022-11-29T22:06:55.328Z,4.54
2022-11-29T22:09:22.721Z,4.47
2022-11-29T22:11:50.087Z,4.46
2022-11-29T22:14:20.242Z,4.43
2022-11-29T22:16:56.382Z,4.47
2022-11-29T22:19:26.717Z,4.48
2022-11-29T22:21:57.231Z,4.48
2022-11-29T22:24:27.580Z,4.50
2022-11-29T22:26:59.443Z,4.47
2022-11-29T22:29:26.802Z,4.49
2022-11-29T22:31:56.296Z,4.48
2022-11-29T22:34:26.936Z,4.47
2022-11-29T22:36:54.541Z,4.40
2022-11-29T22:39:24.127Z,4.30
2022-11-29T22:41:54.762Z,4.19
2022-11-29T22:44:23.623Z,4.17
2022-11-29T22:46:52.044Z,4.18
2022-11-29T22:49:19.742Z,4.24
2022-11-29T22:51:47.969Z,4.14
2022-11-29T22:54:16.478Z,4.06
2022-11-29T22:56:45.486Z,4.02
2022-11-29T22:59:12.980Z,4.04
2022-11-29T23:01:41.631Z,4.11
2022-11-29T23:04:11.230Z,4.09
2022-11-29T23:06:42.300Z,4.13
2022-11-29T23:09:15.855Z,4.16
2022-11-29T23:11:44.813Z,4.23
2022-11-29T23:14:13.024Z,4.10
2022-11-29T23:16:40.626Z,4.16
2022-11-29T23:19:08.061Z,4.17
2022-11-29T23:21:38.334Z,4.12
2022-11-29T23:24:06.164Z,4.09
2022-11-29T23:26:40.091Z,4.09
2022-11-29T23:29:09.629Z,4.11
2022-11-29T23:31:37.339Z,4.10
2022-11-29T23:34:05.398Z,4.13
2022-11-29T23:36:33.429Z,4.08
2022-11-29T23:39:00.980Z,3.98
2022-11-29T23:41:28.379Z,4.03
2022-11-29T23:43:55.824Z,4.06
2022-11-29T23:46:24.265Z,4.15
2022-11-29T23:48:52.312Z,4.28
2022-11-29T23:51:20.280Z,4.06
2022-11-29T23:53:54.406Z,4.26
2022-11-29T23:56:22.432Z,4.20
2022-11-29T23:58:49.878Z,4.18
